createdAt,value
2019-02-07T00:00:54.884Z,61.43
2019-02-07T00:03:24.389Z,77.43
2019-02-07T00:05:53.850Z,61.20
2019-02-07T00:08:23.502Z,49.87
2019-02-07T00:10:52.988Z,77.13
2019-02-07T00:13:22.514Z,54.57
2019-02-07T00:15:51.973Z,71.20
2019-02-07T00:18:21.466Z,64.20
2019-02-07T00:20:51.331Z,57.07
2019-02-07T00:23:21.602Z,58.37
2019-02-07T00:25:51.037Z,151.20
2019-02-07T00:28:20.422Z,94.67
2019-02-07T00:30:49.799Z,60.77
2019-02-07T00:33:19.262Z,97.03
2019-02-07T00:35:48.895Z,61.40
2019-02-07T00:38:18.320Z,77.17
2019-02-07T00:40:47.763Z,76.53
2019-02-07T00:43:17.127Z,51.87
2019-02-07T00:45:46.505Z,110.37
2019-02-07T00:48:15.886Z,92.00
2019-02-07T00:50:45.234Z,67.00
2019-02-07T00:53:14.638Z,60.23
2019-02-07T00:55:44.128Z,62.03
2019-02-07T00:58:13.509Z,66.53
2019-02-07T01:00:42.948Z,54.93
2019-02-07T01:03:12.480Z,72.17
2019-02-07T01:05:42.130Z,61.83
2019-02-07T01:08:11.721Z,54.03
2019-02-07T01:10:41.136Z,55.77
2019-02-07T01:13:10.867Z,77.97
2019-02-07T01:15:40.298Z,192.30
2019-02-07T01:18:10.103Z,148.33
2019-02-07T01:20:39.894Z,137.10
2019-02-07T01:23:09.393Z,152.53
2019-02-07T01:25:38.804Z,160.30
2019-02-07T01:28:08.226Z,252.03
2019-02-07T01:30:37.862Z,270.83
2019-02-07T01:33:07.264Z,78.13
2019-02-07T01:35:36.911Z,65.37
2019-02-07T01:38:06.330Z,62.73
2019-02-07T01:40:35.687Z,76.07
2019-02-07T01:43:05.587Z,85.20
2019-02-07T01:45:34.937Z,91.87
2019-02-07T01:48:04.466Z,76.83
2019-02-07T01:50:34.115Z,63.80
2019-02-07T01:53:03.460Z,59.70
2019-02-07T01:55:32.820Z,70.03
2019-02-07T01:58:02.346Z,64.50
2019-02-07T02:00:31.808Z,73.80
2019-02-07T02:03:01.189Z,119.47
2019-02-07T02:05:30.840Z,93.80
2019-02-07T02:08:00.177Z,74.57
2019-02-07T02:10:29.854Z,110.93
2019-02-07T02:12:59.370Z,93.57
2019-02-07T02:15:28.841Z,91.80
2019-02-07T02:17:58.284Z,94.27
2019-02-07T02:20:27.896Z,128.30
2019-02-07T02:22:57.323Z,129.30
2019-02-07T02:25:26.699Z,277.40
2019-02-07T02:27:56.208Z,99.10
2019-02-07T02:30:28.026Z,73.27
2019-02-07T02:32:57.450Z,104.73
2019-02-07T02:35:26.937Z,155.77
2019-02-07T02:37:56.291Z,112.87
2019-02-07T02:40:26.085Z,82.07
2019-02-07T02:42:55.929Z,101.87
2019-02-07T02:48:14.243Z,94.67
2019-02-07T02:50:43.777Z,141.20
2019-02-07T02:53:13.313Z,192.23
2019-02-07T02:55:44.128Z,93.33
2019-02-07T02:58:13.741Z,82.23
2019-02-07T03:01:00.857Z,101.83
2019-02-07T03:03:35.582Z,91.53
2019-02-07T03:06:27.027Z,59.27
2019-02-07T03:09:14.304Z,68.57
2019-02-07T03:12:08.904Z,58.33
2019-02-07T03:15:01.952Z,45.57
2019-02-07T03:17:50.848Z,45.27
2019-02-07T03:20:42.225Z,61.43
2019-02-07T03:23:36.721Z,69.40
2019-02-07T03:26:19.318Z,50.67
2019-02-07T03:28:59.151Z,62.37
2019-02-07T03:31:49.497Z,68.17
2019-02-07T03:34:37.887Z,79.47
2019-02-07T03:37:16.297Z,57.53
2019-02-07T03:40:23.107Z,61.97
2019-02-07T03:43:11.674Z,51.87
2019-02-07T03:46:02.808Z,45.40
2019-02-07T03:48:49.171Z,47.13
2019-02-07T03:51:28.608Z,52.47
2019-02-07T03:54:23.645Z,58.50
2019-02-07T03:57:11.279Z,48.43
2019-02-07T04:00:06.723Z,49.77
2019-02-07T04:02:45.161Z,67.70
2019-02-07T04:05:23.520Z,46.07
2019-02-07T04:08:12.085Z,50.87
2019-02-07T04:10:53.976Z,67.83
2019-02-07T04:13:41.287Z,54.07
2019-02-07T04:16:19.709Z,72.37
2019-02-07T04:19:11.054Z,53.27
2019-02-07T04:21:55.633Z,62.50
2019-02-07T04:24:56.777Z,69.30
2019-02-07T04:27:41.361Z,63.33
2019-02-07T04:30:25.064Z,84.77
2019-02-07T04:33:28.888Z,63.50
2019-02-07T04:36:14.852Z,59.10
2019-02-07T04:38:52.899Z,61.87
2019-02-07T04:41:44.689Z,55.87
2019-02-07T04:44:48.530Z,57.10
2019-02-07T04:47:40.221Z,52.67
2019-02-07T04:50:26.076Z,55.60
2019-02-07T04:53:23.449Z,40.97
2019-02-07T04:56:10.659Z,50.77
2019-02-07T04:59:08.316Z,49.77
2019-02-07T05:01:50.485Z,46.63
2019-02-07T05:04:41.837Z,48.40
2019-02-07T05:07:29.243Z,45.53
2019-02-07T05:10:33.337Z,40.00
2019-02-07T05:13:20.586Z,44.87
2019-02-07T05:16:09.248Z,45.17
2019-02-07T05:18:57.779Z,48.50
2019-02-07T05:21:45.042Z,46.60
2019-02-07T05:24:29.774Z,44.37
2019-02-07T05:27:07.095Z,35.87
2019-02-07T05:30:01.550Z,36.70
2019-02-07T05:32:40.303Z,31.50
2019-02-07T05:35:24.891Z,39.83
2019-02-07T05:38:11.090Z,37.20
2019-02-07T05:41:17.746Z,35.93
2019-02-07T05:44:18.308Z,35.63
2019-02-07T05:47:15.927Z,35.70
2019-02-07T05:49:59.850Z,37.40
2019-02-07T05:52:40.431Z,36.87
2019-02-07T05:55:27.857Z,40.53
2019-02-07T05:58:10.444Z,42.10
2019-02-07T06:00:55.791Z,38.77
2019-02-07T06:03:47.531Z,41.67
2019-02-07T06:06:35.019Z,35.90
2019-02-07T06:09:30.156Z,38.90
2019-02-07T06:12:25.015Z,39.00
2019-02-07T06:15:10.214Z,37.23
2019-02-07T06:18:17.092Z,38.47
2019-02-07T06:21:23.862Z,41.47
2019-02-07T06:24:12.713Z,39.57
2019-02-07T06:27:16.451Z,39.50
2019-02-07T06:29:57.749Z,42.73
2019-02-07T06:32:46.514Z,35.60
2019-02-07T06:35:33.793Z,38.17
2019-02-07T06:38:13.295Z,38.10
2019-02-07T06:41:02.006Z,39.63
2019-02-07T06:43:59.662Z,46.77
2019-02-07T06:46:54.216Z,41.97
2019-02-07T06:49:53.139Z,36.00
2019-02-07T06:52:36.522Z,45.70
2019-02-07T06:55:24.642Z,41.77
2019-02-07T06:58:16.267Z,38.70
2019-02-07T07:01:08.256Z,41.67
2019-02-07T07:03:57.729Z,41.73
2019-02-07T07:06:49.571Z,29.33
2019-02-07T07:09:41.281Z,33.43
2019-02-07T07:12:19.607Z,38.00
2019-02-07T07:15:06.314Z,31.23
2019-02-07T07:17:53.674Z,32.97
2019-02-07T07:20:42.334Z,32.53
2019-02-07T07:23:33.988Z,34.13
2019-02-07T07:26:38.591Z,31.93
2019-02-07T07:29:18.611Z,33.13
2019-02-07T07:32:02.507Z,31.70
2019-02-07T07:34:49.540Z,34.07
2019-02-07T07:37:39.055Z,31.77
2019-02-07T07:40:26.990Z,37.43
2019-02-07T07:43:18.680Z,38.47
2019-02-07T07:46:13.107Z,33.73
2019-02-07T07:49:10.520Z,33.60
2019-02-07T07:51:55.471Z,37.30
2019-02-07T07:54:44.829Z,35.73
2019-02-07T07:57:31.716Z,35.53
2019-02-07T08:00:19.253Z,34.23
2019-02-07T08:03:05.435Z,43.50
2019-02-07T08:05:54.057Z,40.27
2019-02-07T08:08:41.564Z,39.03
2019-02-07T08:11:30.165Z,41.77
2019-02-07T08:14:17.962Z,41.63
2019-02-07T08:17:09.526Z,42.90
2019-02-07T08:20:01.318Z,43.30
2019-02-07T08:22:48.395Z,46.67
2019-02-07T08:25:40.069Z,48.17
2019-02-07T08:28:31.457Z,48.80
2019-02-07T08:31:18.117Z,47.83
2019-02-07T08:34:05.258Z,49.07
2019-02-07T08:37:09.594Z,45.90
2019-02-07T08:39:58.237Z,53.93
2019-02-07T08:42:58.735Z,48.13
2019-02-07T08:45:47.354Z,42.10
2019-02-07T08:48:34.843Z,51.13
2019-02-07T08:51:12.599Z,49.47
2019-02-07T08:53:50.975Z,53.73
2019-02-07T08:56:39.801Z,52.60
2019-02-07T08:59:23.370Z,44.73
2019-02-07T09:02:01.321Z,39.57
2019-02-07T09:04:52.597Z,44.17
2019-02-07T09:07:39.663Z,42.13
2019-02-07T09:10:31.480Z,45.70
2019-02-07T09:13:28.943Z,49.43
2019-02-07T09:16:32.493Z,37.87
2019-02-07T09:19:21.129Z,44.97
2019-02-07T09:22:01.979Z,45.80
2019-02-07T09:24:56.273Z,48.67
2019-02-07T09:27:48.011Z,45.60
2019-02-07T09:30:34.984Z,47.87
2019-02-07T09:33:36.843Z,43.07
2019-02-07T09:36:20.130Z,45.20
2019-02-07T09:39:09.588Z,42.70
2019-02-07T09:42:01.114Z,48.10
2019-02-07T09:44:48.507Z,49.17
2019-02-07T09:47:37.089Z,45.07
2019-02-07T09:50:20.108Z,44.17
2019-02-07T09:53:00.721Z,46.43
2019-02-07T09:55:44.432Z,47.30
2019-02-07T09:58:41.918Z,47.30
2019-02-07T10:01:29.359Z,42.17
2019-02-07T10:04:30.161Z,44.70
2019-02-07T10:07:10.478Z,47.63
2019-02-07T10:10:03.161Z,41.60
2019-02-07T10:13:03.640Z,44.10
2019-02-07T10:16:06.257Z,46.30
2019-02-07T10:18:52.515Z,44.60
2019-02-07T10:21:51.661Z,41.77
2019-02-07T10:24:45.299Z,41.87
2019-02-07T10:27:36.942Z,40.93
2019-02-07T10:30:21.436Z,42.70
2019-02-07T10:33:01.219Z,45.33
2019-02-07T10:35:50.046Z,39.17
2019-02-07T10:38:44.504Z,37.00
2019-02-07T10:41:32.055Z,40.33
2019-02-07T10:44:36.911Z,36.40
2019-02-07T10:47:31.208Z,38.43
2019-02-07T10:50:16.499Z,41.03
2019-02-07T10:53:23.009Z,41.03
2019-02-07T10:56:11.503Z,41.40
2019-02-07T10:58:49.431Z,43.83
2019-02-07T11:01:41.219Z,38.90
2019-02-07T11:04:29.915Z,40.77
2019-02-07T11:07:21.365Z,40.03
2019-02-07T11:10:08.715Z,37.53
2019-02-07T11:13:03.298Z,42.67
2019-02-07T11:16:03.867Z,42.87
2019-02-07T11:18:55.550Z,42.03
2019-02-07T11:21:52.086Z,41.30
2019-02-07T11:24:48.688Z,41.37
2019-02-07T11:27:55.218Z,35.40
2019-02-07T11:30:41.977Z,33.60
2019-02-07T11:33:29.297Z,33.00
2019-02-07T11:36:17.810Z,32.03
2019-02-07T11:39:15.784Z,37.20
2019-02-07T11:42:16.436Z,37.33
2019-02-07T11:45:01.429Z,34.87
2019-02-07T11:47:49.562Z,35.57
2019-02-07T11:50:31.797Z,33.70
2019-02-07T11:53:19.724Z,34.67
2019-02-07T11:56:14.133Z,33.40
2019-02-07T11:59:02.008Z,36.90
2019-02-07T12:01:47.732Z,32.77
2019-02-07T12:04:34.997Z,34.33
2019-02-07T12:07:27.295Z,32.10
2019-02-07T12:10:15.851Z,34.83
2019-02-07T12:13:04.451Z,40.73
2019-02-07T12:15:40.420Z,42.33
2019-02-07T12:18:21.329Z,36.43
2019-02-07T12:21:09.918Z,37.23
2019-02-07T12:23:58.415Z,33.73
2019-02-07T12:26:43.291Z,34.07
2019-02-07T12:29:34.803Z,35.53
2019-02-07T12:32:35.904Z,35.30
2019-02-07T12:35:42.829Z,36.77
2019-02-07T12:38:37.794Z,33.23
2019-02-07T12:41:39.377Z,33.73
2019-02-07T12:44:27.472Z,36.33
2019-02-07T12:47:09.956Z,36.30
2019-02-07T12:49:57.155Z,38.97
2019-02-07T12:52:45.780Z,33.03
2019-02-07T12:55:52.407Z,34.53
2019-02-07T12:58:41.503Z,35.87
2019-02-07T13:01:33.069Z,32.33
2019-02-07T13:04:17.609Z,35.37
2019-02-07T13:07:06.858Z,34.47
2019-02-07T13:09:53.743Z,34.80
2019-02-07T13:12:38.517Z,41.30
2019-02-07T13:15:30.812Z,37.03
2019-02-07T13:18:34.332Z,32.90
2019-02-07T13:21:31.814Z,35.00
2019-02-07T13:24:18.948Z,37.17
2019-02-07T13:27:02.126Z,34.63
2019-02-07T13:30:05.853Z,37.30
2019-02-07T13:32:51.689Z,35.90
2019-02-07T13:35:40.341Z,40.03
2019-02-07T13:38:27.671Z,40.67
2019-02-07T13:41:21.835Z,36.70
2019-02-07T13:44:09.291Z,38.60
2019-02-07T13:46:50.287Z,35.43
2019-02-07T13:49:51.718Z,39.27
2019-02-07T13:52:32.173Z,35.90
2019-02-07T13:55:12.583Z,37.03
2019-02-07T13:57:52.308Z,35.87
2019-02-07T14:00:41.305Z,39.23
2019-02-07T14:03:28.652Z,39.73
2019-02-07T14:06:21.495Z,39.47
2019-02-07T14:09:08.644Z,41.37
2019-02-07T14:11:55.621Z,35.73
2019-02-07T14:14:38.246Z,41.40
2019-02-07T14:17:26.127Z,38.47
2019-02-07T14:20:13.341Z,37.30
2019-02-07T14:22:54.310Z,38.07
2019-02-07T14:25:45.830Z,46.00
2019-02-07T14:28:27.471Z,41.73
2019-02-07T14:31:11.849Z,41.00
2019-02-07T14:34:18.616Z,39.70
2019-02-07T14:37:05.830Z,44.23
2019-02-07T14:39:52.787Z,38.50
2019-02-07T14:42:44.731Z,45.43
2019-02-07T14:45:32.170Z,42.87
2019-02-07T14:48:01.878Z,53.03
2019-02-07T14:50:31.569Z,42.83
2019-02-07T14:53:02.113Z,41.10
2019-02-07T14:55:31.793Z,42.33
2019-02-07T14:58:01.410Z,42.23
2019-02-07T15:00:31.440Z,47.53
2019-02-07T15:03:00.989Z,44.97
2019-02-07T15:05:31.502Z,44.57
2019-02-07T15:08:01.433Z,52.70
2019-02-07T15:10:31.074Z,46.00
2019-02-07T15:13:01.322Z,46.60
2019-02-07T15:15:31.065Z,47.67
2019-02-07T15:18:00.653Z,50.53
2019-02-07T15:20:30.234Z,43.97
2019-02-07T15:23:00.247Z,50.60
2019-02-07T15:25:29.959Z,54.77
2019-02-07T15:27:59.665Z,71.40
2019-02-07T15:30:29.516Z,63.13
2019-02-07T15:32:59.125Z,109.20
2019-02-07T15:35:31.803Z,55.77
2019-02-07T15:38:01.488Z,51.77
2019-02-07T15:40:32.521Z,48.90
2019-02-07T15:43:02.285Z,54.90
2019-02-07T15:45:31.901Z,50.70
2019-02-07T15:48:01.653Z,51.27
2019-02-07T15:50:37.609Z,47.20
2019-02-07T15:53:03.618Z,49.70
2019-02-07T15:55:33.284Z,51.97
2019-02-07T15:58:02.935Z,48.30
2019-02-07T16:00:52.301Z,50.40
2019-02-07T16:03:29.717Z,51.80
2019-02-07T16:05:59.317Z,48.43
2019-02-07T16:08:29.116Z,48.90
2019-02-07T16:10:58.722Z,52.20
2019-02-07T16:13:28.458Z,58.17
2019-02-07T16:15:58.191Z,63.63
2019-02-07T16:18:27.876Z,53.93
2019-02-07T16:20:57.484Z,51.50
2019-02-07T16:23:27.316Z,53.07
2019-02-07T16:25:57.013Z,54.50
2019-02-07T16:28:26.857Z,58.23
2019-02-07T16:30:56.664Z,53.73
2019-02-07T16:33:26.323Z,55.07
2019-02-07T16:35:56.021Z,50.60
2019-02-07T16:38:25.671Z,57.57
2019-02-07T16:40:55.580Z,53.30
2019-02-07T16:43:25.879Z,57.70
2019-02-07T16:45:55.546Z,60.80
2019-02-07T16:48:25.204Z,54.80
2019-02-07T16:51:00.172Z,52.40
2019-02-07T16:53:26.405Z,48.47
2019-02-07T16:55:56.099Z,64.57
2019-02-07T16:58:25.770Z,57.67
2019-02-07T17:00:55.381Z,58.70
2019-02-07T17:03:24.987Z,54.13
2019-02-07T17:05:54.615Z,53.63
2019-02-07T17:08:24.172Z,53.27
2019-02-07T17:10:53.867Z,60.63
2019-02-07T17:13:23.473Z,50.07
2019-02-07T17:15:53.084Z,52.37
2019-02-07T17:18:22.834Z,46.93
2019-02-07T17:20:52.406Z,47.20
2019-02-07T17:23:22.113Z,56.27
2019-02-07T17:25:51.774Z,77.10
2019-02-07T17:28:21.656Z,70.50
2019-02-07T17:30:51.257Z,89.43
2019-02-07T17:33:21.429Z,80.50
2019-02-07T17:35:51.070Z,55.47
2019-02-07T17:38:20.597Z,52.77
2019-02-07T17:40:50.318Z,51.57
2019-02-07T17:43:20.888Z,49.83
2019-02-07T17:45:50.462Z,50.23
2019-02-07T17:48:20.410Z,49.47
2019-02-07T17:50:49.951Z,51.50
2019-02-07T17:53:19.471Z,47.53
2019-02-07T17:55:49.427Z,51.60
2019-02-07T17:58:19.020Z,51.97
2019-02-07T18:00:57.208Z,49.50
2019-02-07T18:03:26.795Z,54.67
2019-02-07T18:05:56.440Z,59.23
2019-02-07T18:08:26.125Z,52.10
2019-02-07T18:10:55.763Z,52.20
2019-02-07T18:13:25.361Z,52.73
2019-02-07T18:15:57.422Z,58.97
2019-02-07T18:18:26.234Z,55.63
2019-02-07T18:20:55.813Z,51.93
2019-02-07T18:23:25.388Z,50.40
2019-02-07T18:25:54.937Z,57.20
2019-02-07T18:28:24.538Z,55.50
2019-02-07T18:30:54.139Z,57.47
2019-02-07T18:33:23.706Z,60.17
2019-02-07T18:35:53.373Z,63.73
2019-02-07T18:38:23.051Z,64.73
2019-02-07T18:40:52.659Z,61.23
2019-02-07T18:43:22.333Z,65.13
2019-02-07T18:45:51.961Z,62.80
2019-02-07T18:48:21.484Z,71.70
2019-02-07T18:50:51.138Z,70.27
2019-02-07T18:53:20.897Z,68.37
2019-02-07T18:55:50.638Z,69.53
2019-02-07T18:58:20.304Z,67.60
2019-02-07T19:00:49.929Z,67.40
2019-02-07T19:03:19.481Z,64.13
2019-02-07T19:05:49.235Z,71.50
2019-02-07T19:08:18.855Z,63.73
2019-02-07T19:10:48.501Z,64.13
2019-02-07T19:13:18.107Z,68.73
2019-02-07T19:15:50.592Z,67.67
2019-02-07T19:18:20.313Z,68.60
2019-02-07T19:20:49.883Z,60.23
2019-02-07T19:23:19.860Z,68.37
2019-02-07T19:25:49.471Z,62.27
2019-02-07T19:28:19.077Z,65.13
2019-02-07T19:30:48.752Z,69.97
2019-02-07T19:33:22.364Z,49.60
2019-02-07T19:35:51.045Z,61.90
2019-02-07T19:38:21.151Z,58.47
2019-02-07T19:40:50.764Z,58.60
2019-02-07T19:43:20.473Z,55.00
2019-02-07T19:45:50.146Z,61.43
2019-02-07T19:48:19.982Z,54.77
2019-02-07T19:50:49.773Z,57.20
2019-02-07T19:53:20.020Z,59.50
2019-02-07T19:55:49.585Z,50.27
2019-02-07T19:58:21.316Z,54.57
2019-02-07T20:00:50.977Z,55.90
2019-02-07T20:03:20.566Z,54.50
2019-02-07T20:05:50.193Z,52.87
2019-02-07T20:08:20.022Z,57.17
2019-02-07T20:10:49.639Z,60.13
2019-02-07T20:13:19.471Z,58.53
2019-02-07T20:15:49.114Z,57.23
2019-02-07T20:18:18.728Z,52.73
2019-02-07T20:20:48.302Z,58.57
2019-02-07T20:23:18.296Z,59.27
2019-02-07T20:25:47.834Z,59.77
2019-02-07T20:28:17.519Z,56.57
2019-02-07T20:33:16.715Z,59.70
2019-02-07T20:35:46.367Z,56.27
2019-02-07T20:38:15.978Z,54.07
2019-02-07T20:40:45.837Z,52.93
2019-02-07T20:43:15.533Z,47.80
2019-02-07T20:45:45.173Z,57.83
2019-02-07T20:48:14.710Z,56.63
2019-02-07T20:50:44.264Z,55.53
2019-02-07T20:53:17.491Z,49.67
2019-02-07T20:55:47.525Z,54.97
2019-02-07T20:58:17.153Z,59.87
2019-02-07T21:00:46.783Z,56.63
2019-02-07T21:03:16.374Z,51.47
2019-02-07T21:05:45.966Z,49.13
2019-02-07T21:08:15.526Z,50.80
2019-02-07T21:10:45.130Z,54.23
2019-02-07T21:13:14.749Z,55.77
2019-02-07T21:15:44.228Z,54.47
2019-02-07T21:18:13.852Z,55.30
2019-02-07T21:20:43.433Z,56.90
2019-02-07T21:23:13.063Z,49.30
2019-02-07T21:25:48.123Z,58.07
2019-02-07T21:28:17.830Z,61.10
2019-02-07T21:30:47.455Z,53.97
2019-02-07T21:33:17.037Z,64.63
2019-02-07T21:35:46.685Z,64.03
2019-02-07T21:38:16.381Z,59.13
2019-02-07T21:40:45.932Z,61.03
2019-02-07T21:43:15.816Z,56.90
2019-02-07T21:45:45.460Z,55.10
2019-02-07T21:48:15.030Z,59.70
2019-02-07T21:50:44.589Z,58.70
2019-02-07T21:53:14.211Z,58.83
2019-02-07T21:55:43.860Z,57.43
2019-02-07T21:58:13.733Z,58.73
2019-02-07T22:00:44.646Z,55.40
2019-02-07T22:03:15.069Z,48.20
2019-02-07T22:05:44.848Z,55.67
2019-02-07T22:08:14.507Z,60.53
2019-02-07T22:10:44.182Z,63.63
2019-02-07T22:13:14.089Z,53.63
2019-02-07T22:15:43.707Z,58.73
2019-02-07T22:18:13.296Z,65.40
2019-02-07T22:20:42.874Z,59.63
2019-02-07T22:23:12.700Z,66.23
2019-02-07T22:25:42.279Z,60.67
2019-02-07T22:28:12.255Z,64.50
2019-02-07T22:30:41.917Z,56.37
2019-02-07T22:33:11.585Z,63.40
2019-02-07T22:35:41.179Z,60.57
2019-02-07T22:38:10.776Z,61.77
2019-02-07T22:40:40.442Z,68.17
2019-02-07T22:43:10.308Z,61.50
2019-02-07T22:45:39.950Z,66.20
2019-02-07T22:48:09.608Z,57.77
2019-02-07T22:50:39.631Z,65.07
2019-02-07T22:53:09.244Z,68.17
2019-02-07T22:55:38.905Z,55.77
2019-02-07T22:58:09.398Z,65.00
2019-02-07T23:01:26.414Z,61.77
2019-02-07T23:03:58.108Z,63.27
2019-02-07T23:06:27.760Z,63.37
2019-02-07T23:08:57.530Z,66.33
2019-02-07T23:11:27.282Z,65.73
2019-02-07T23:13:56.926Z,74.23
2019-02-07T23:16:26.944Z,71.00
2019-02-07T23:18:56.530Z,74.57
2019-02-07T23:21:26.109Z,68.70
2019-02-07T23:23:55.783Z,58.20
2019-02-07T23:26:25.622Z,59.53
2019-02-07T23:28:55.180Z,57.60
2019-02-07T23:31:25.185Z,58.03
2019-02-07T23:33:54.755Z,57.03
2019-02-07T23:36:24.332Z,55.13
2019-02-07T23:38:53.901Z,56.70
2019-02-07T23:41:23.476Z,62.30
2019-02-07T23:43:53.129Z,58.87
2019-02-07T23:46:23.415Z,53.97
2019-02-07T23:48:53.022Z,62.87
2019-02-07T23:51:22.599Z,57.40
2019-02-07T23:53:52.346Z,65.97
2019-02-07T23:56:21.915Z,61.63
2019-02-07T23:58:51.488Z,61.80
